createdAt,value
2022-09-12T00:02:19.606Z,12.44
2022-09-12T00:04:50.325Z,12.44
2022-09-12T00:07:20.384Z,12.42
2022-09-12T00:09:51.773Z,12.41
2022-09-12T00:12:21.831Z,12.42
2022-09-12T00:14:51.598Z,12.41
2022-09-12T00:17:22.488Z,12.41
2022-09-12T00:19:55.056Z,12.43
2022-09-12T00:22:25.959Z,12.44
2022-09-12T00:24:57.385Z,12.44
2022-09-12T00:27:26.936Z,12.44
2022-09-12T00:29:57.098Z,12.44
2022-09-12T00:32:28.488Z,12.45
2022-09-12T00:35:00.050Z,12.46
2022-09-12T00:37:35.209Z,12.46
2022-09-12T00:40:06.711Z,12.45
2022-09-12T00:42:40.025Z,12.43
2022-09-12T00:45:25.186Z,12.40
2022-09-12T00:47:59.250Z,12.40
2022-09-12T00:50:34.873Z,12.39
2022-09-12T00:53:09.046Z,12.39
2022-09-12T00:55:46.906Z,12.39
2022-09-12T00:58:19.882Z,12.39
2022-09-12T01:00:50.331Z,12.38
2022-09-12T01:03:23.155Z,12.38
2022-09-12T01:05:58.969Z,12.37
2022-09-12T01:08:30.129Z,12.36
2022-09-12T01:11:01.148Z,12.34
2022-09-12T01:13:35.864Z,12.32
2022-09-12T01:16:09.219Z,12.31
2022-09-12T01:18:52.080Z,12.31
2022-09-12T01:21:35.887Z,12.32
2022-09-12T01:24:28.165Z,12.32
2022-09-12T01:27:23.843Z,12.33
2022-09-12T01:30:26.578Z,12.33
2022-09-12T01:32:58.406Z,12.33
2022-09-12T01:36:07.969Z,12.33
2022-09-12T01:38:47.593Z,12.32
2022-09-12T01:41:34.877Z,12.32
2022-09-12T01:44:11.476Z,12.34
2022-09-12T01:47:03.009Z,12.35
2022-09-12T01:49:38.226Z,12.33
2022-09-12T01:52:28.888Z,12.32
2022-09-12T01:55:17.975Z,12.32
2022-09-12T01:58:22.620Z,12.31
2022-09-12T02:00:54.738Z,12.31
2022-09-12T02:03:54.877Z,12.31
2022-09-12T02:06:29.032Z,12.32
2022-09-12T02:09:06.575Z,12.32
2022-09-12T02:11:43.146Z,12.30
2022-09-12T02:14:25.976Z,12.31
2022-09-12T02:17:11.548Z,12.31
2022-09-12T02:19:47.648Z,12.32
2022-09-12T02:22:21.189Z,12.34
2022-09-12T02:24:57.388Z,12.35
2022-09-12T02:27:34.905Z,12.37
2022-09-12T02:30:08.682Z,12.39
2022-09-12T02:33:02.724Z,12.38
2022-09-12T02:36:00.219Z,12.38
2022-09-12T02:38:50.397Z,12.37
2022-09-12T02:41:21.648Z,12.36
2022-09-12T02:43:54.196Z,12.34
2022-09-12T02:46:47.877Z,12.32
2022-09-12T02:49:18.350Z,12.31
2022-09-12T02:51:49.655Z,12.28
2022-09-12T02:54:20.929Z,12.24
2022-09-12T02:56:51.262Z,12.22
2022-09-12T02:59:24.429Z,12.20
2022-09-12T03:02:04.915Z,12.20
2022-09-12T03:04:46.293Z,12.22
2022-09-12T03:07:58.228Z,12.23
2022-09-12T03:10:49.152Z,12.26
2022-09-12T03:13:40.225Z,12.29
2022-09-12T03:16:41.669Z,12.33
2022-09-12T03:19:28.200Z,12.34
2022-09-12T03:22:23.226Z,12.35
2022-09-12T03:24:56.119Z,12.36
2022-09-12T03:27:39.502Z,12.35
2022-09-12T03:30:11.690Z,12.36
2022-09-12T03:32:46.104Z,12.36
2022-09-12T03:35:22.691Z,12.38
2022-09-12T03:37:54.115Z,12.38
2022-09-12T03:40:23.815Z,12.39
2022-09-12T03:42:52.903Z,12.40
2022-09-12T03:45:22.469Z,12.41
2022-09-12T03:47:52.288Z,12.42
2022-09-12T03:50:22.409Z,12.43
2022-09-12T03:52:51.823Z,12.42
2022-09-12T03:55:21.472Z,12.40
2022-09-12T03:57:54.163Z,12.38
2022-09-12T04:00:23.844Z,12.38
2022-09-12T04:02:57.856Z,12.35
2022-09-12T04:05:27.046Z,12.33
2022-09-12T04:07:57.034Z,12.33
2022-09-12T04:10:26.578Z,12.34
2022-09-12T04:12:55.571Z,12.35
2022-09-12T04:15:24.969Z,12.36
2022-09-12T04:17:54.269Z,12.38
2022-09-12T04:20:24.593Z,12.39
2022-09-12T04:22:53.271Z,12.41
2022-09-12T04:25:24.407Z,12.39
2022-09-12T04:27:53.416Z,12.41
2022-09-12T04:30:22.440Z,12.45
2022-09-12T04:32:52.147Z,12.49
2022-09-12T04:35:21.516Z,12.53
2022-09-12T04:37:50.713Z,12.56
2022-09-12T04:40:20.124Z,12.59
2022-09-12T04:42:49.201Z,12.62
2022-09-12T04:45:18.431Z,12.62
2022-09-12T04:47:47.200Z,12.64
2022-09-12T04:50:18.001Z,12.62
2022-09-12T04:52:54.697Z,12.62
2022-09-12T04:55:25.709Z,12.65
2022-09-12T04:57:54.651Z,12.66
2022-09-12T05:00:24.382Z,12.66
2022-09-12T05:02:53.541Z,12.70
2022-09-12T05:05:22.431Z,12.75
2022-09-12T05:07:51.526Z,12.80
2022-09-12T05:10:20.418Z,12.84
2022-09-12T05:12:49.627Z,12.84
2022-09-12T05:15:19.357Z,12.85
2022-09-12T05:17:48.276Z,12.88
2022-09-12T05:20:18.093Z,12.89
2022-09-12T05:22:47.344Z,12.90
2022-09-12T05:25:16.213Z,12.88
2022-09-12T05:27:49.926Z,12.90
2022-09-12T05:30:19.829Z,12.90
2022-09-12T05:32:49.392Z,12.89
2022-09-12T05:35:18.840Z,12.91
2022-09-12T05:37:47.422Z,12.96
2022-09-12T05:40:20.824Z,13.01
2022-09-12T05:42:49.817Z,13.05
2022-09-12T05:45:18.496Z,13.09
2022-09-12T05:47:47.487Z,13.13
2022-09-12T05:50:16.778Z,13.18
2022-09-12T05:52:46.017Z,13.27
2022-09-12T05:55:14.884Z,13.38
2022-09-12T05:57:46.532Z,13.46
2022-09-12T06:00:16.194Z,13.51
2022-09-12T06:02:45.046Z,13.52
2022-09-12T06:05:14.856Z,13.53
2022-09-12T06:07:43.833Z,13.55
2022-09-12T06:10:12.519Z,13.54
2022-09-12T06:12:41.307Z,13.55
2022-09-12T06:15:11.470Z,13.61
2022-09-12T06:17:40.231Z,13.82
2022-09-12T06:20:09.390Z,14.02
2022-09-12T06:22:38.381Z,14.27
2022-09-12T06:25:08.936Z,14.55
2022-09-12T06:27:37.823Z,14.72
2022-09-12T06:30:07.840Z,14.86
2022-09-12T06:32:37.464Z,15.00
2022-09-12T06:35:07.289Z,14.84
2022-09-12T06:37:36.048Z,14.90
2022-09-12T06:40:05.885Z,15.08
2022-09-12T06:42:34.689Z,15.12
2022-09-12T06:45:03.748Z,15.20
2022-09-12T06:47:33.359Z,15.40
2022-09-12T06:50:02.254Z,15.66
2022-09-12T06:52:31.345Z,15.78
2022-09-12T06:55:00.124Z,15.56
2022-09-12T06:57:32.028Z,15.65
2022-09-12T07:00:01.498Z,15.63
2022-09-12T07:02:30.527Z,15.46
2022-09-12T07:04:59.476Z,15.44
2022-09-12T07:07:28.271Z,15.49
2022-09-12T07:09:59.003Z,15.54
2022-09-12T07:12:29.644Z,15.68
2022-09-12T07:14:58.319Z,15.76
2022-09-12T07:17:27.007Z,15.85
2022-09-12T07:19:55.891Z,15.77
2022-09-12T07:22:24.786Z,15.50
2022-09-12T07:24:56.003Z,15.51
2022-09-12T07:27:24.605Z,15.86
2022-09-12T07:29:53.290Z,16.41
2022-09-12T07:32:23.598Z,16.78
2022-09-12T07:34:52.655Z,17.53
2022-09-12T07:37:21.804Z,18.36
2022-09-12T07:39:50.508Z,18.91
2022-09-12T07:42:19.178Z,18.82
2022-09-12T07:44:51.056Z,18.12
2022-09-12T07:47:20.142Z,18.52
2022-09-12T07:49:49.232Z,18.50
2022-09-12T07:52:19.858Z,18.32
2022-09-12T07:54:48.642Z,18.63
2022-09-12T07:57:17.336Z,19.10
2022-09-12T07:59:52.892Z,19.86
2022-09-12T08:02:23.343Z,20.56
2022-09-12T08:04:53.237Z,21.04
2022-09-12T08:07:22.212Z,21.26
2022-09-12T08:09:50.910Z,21.81
2022-09-12T08:12:20.714Z,22.22
2022-09-12T08:14:51.237Z,22.54
2022-09-12T08:17:20.148Z,22.43
2022-09-12T08:19:50.627Z,22.97
2022-09-12T08:22:22.318Z,23.19
2022-09-12T08:24:51.402Z,22.85
2022-09-12T08:27:20.509Z,22.55
2022-09-12T08:29:49.597Z,21.27
2022-09-12T08:32:18.489Z,21.24
2022-09-12T08:34:47.601Z,21.02
2022-09-12T08:37:16.762Z,21.10
2022-09-12T08:39:50.304Z,21.55
2022-09-12T08:42:42.175Z,22.13
2022-09-12T08:45:32.893Z,22.54
2022-09-12T08:48:11.371Z,22.36
2022-09-12T08:50:49.838Z,21.93
2022-09-12T08:53:32.344Z,22.55
2022-09-12T08:56:06.359Z,22.96
2022-09-12T08:58:41.607Z,23.41
2022-09-12T09:01:14.996Z,23.34
2022-09-12T09:04:06.261Z,22.56
2022-09-12T09:06:54.253Z,23.26
2022-09-12T09:09:33.591Z,23.07
2022-09-12T09:12:30.225Z,23.90
2022-09-12T09:15:22.565Z,24.49
2022-09-12T09:17:55.350Z,23.18
2022-09-12T09:20:31.110Z,22.78
2022-09-12T09:23:17.697Z,23.15
2022-09-12T09:25:50.585Z,23.42
2022-09-12T09:28:40.413Z,23.23
2022-09-12T09:31:17.551Z,23.37
2022-09-12T09:33:52.183Z,24.15
2022-09-12T09:36:25.390Z,24.57
2022-09-12T09:39:06.851Z,24.85
2022-09-12T09:42:24.073Z,25.44
2022-09-12T09:44:56.294Z,25.63
2022-09-12T09:47:25.129Z,25.52
2022-09-12T09:49:53.817Z,24.77
2022-09-12T09:52:27.947Z,23.87
2022-09-12T09:55:02.324Z,25.24
2022-09-12T09:57:36.674Z,25.41
2022-09-12T10:00:35.668Z,25.69
2022-09-12T10:03:12.618Z,26.46
2022-09-12T10:05:53.208Z,26.20
2022-09-12T10:08:24.251Z,26.58
2022-09-12T10:10:58.779Z,26.02
2022-09-12T10:13:34.018Z,25.49
2022-09-12T10:16:06.627Z,25.79
2022-09-12T10:18:43.264Z,25.15
2022-09-12T10:21:23.929Z,25.60
2022-09-12T10:24:06.952Z,23.76
2022-09-12T10:26:40.249Z,22.94
2022-09-12T10:29:32.636Z,23.99
2022-09-12T10:32:08.508Z,24.58
2022-09-12T10:34:45.925Z,25.02
2022-09-12T10:37:40.113Z,24.35
2022-09-12T10:40:35.319Z,25.03
2022-09-12T10:43:17.933Z,25.22
2022-09-12T10:45:46.762Z,24.94
2022-09-12T10:48:33.935Z,24.78
2022-09-12T10:51:02.934Z,23.69
2022-09-12T10:53:51.654Z,22.84
2022-09-12T10:56:33.171Z,24.06
2022-09-12T10:59:20.249Z,24.90
2022-09-12T11:01:58.096Z,25.39
2022-09-12T11:04:30.566Z,26.02
2022-09-12T11:07:06.727Z,25.65
2022-09-12T11:09:38.279Z,24.36
2022-09-12T11:12:30.214Z,23.77
2022-09-12T11:15:30.875Z,24.83
2022-09-12T11:18:11.713Z,25.59
2022-09-12T11:20:59.243Z,26.11
2022-09-12T11:24:06.020Z,26.62
2022-09-12T11:27:24.659Z,27.10
2022-09-12T11:29:58.171Z,27.10
2022-09-12T11:33:17.764Z,27.23
2022-09-12T11:35:55.164Z,27.28
2022-09-12T11:38:51.170Z,27.09
2022-09-12T11:41:37.164Z,27.86
2022-09-12T11:44:22.746Z,27.39
2022-09-12T11:46:52.237Z,27.75
2022-09-12T11:49:40.795Z,27.75
2022-09-12T11:52:20.232Z,28.00
2022-09-12T11:54:53.881Z,27.86
2022-09-12T11:57:25.901Z,27.48
2022-09-12T12:00:04.116Z,27.29
2022-09-12T12:02:43.094Z,26.85
2022-09-12T12:05:22.784Z,26.21
2022-09-12T12:07:57.715Z,25.03
2022-09-12T12:10:42.784Z,24.94
2022-09-12T12:13:56.344Z,24.73
2022-09-12T12:16:27.151Z,23.63
2022-09-12T12:19:15.095Z,24.33
2022-09-12T12:21:46.692Z,24.46
2022-09-12T12:24:29.537Z,25.17
2022-09-12T12:27:23.131Z,25.58
2022-09-12T12:29:51.817Z,25.74
2022-09-12T12:32:22.390Z,24.08
2022-09-12T12:34:51.242Z,23.57
2022-09-12T12:37:20.036Z,23.54
2022-09-12T12:39:51.454Z,23.96
2022-09-12T12:42:35.827Z,24.06
2022-09-12T12:45:04.920Z,24.61
2022-09-12T12:47:34.836Z,24.36
2022-09-12T12:50:21.546Z,25.06
2022-09-12T12:52:59.449Z,25.27
2022-09-12T12:55:34.307Z,25.06
2022-09-12T12:58:05.621Z,24.82
2022-09-12T13:00:39.805Z,25.38
2022-09-12T13:03:30.745Z,25.51
2022-09-12T13:06:08.901Z,25.58
2022-09-12T13:08:43.993Z,25.29
2022-09-12T13:11:30.695Z,25.37
2022-09-12T13:14:05.210Z,25.95
2022-09-12T13:16:38.314Z,26.31
2022-09-12T13:19:18.398Z,26.34
2022-09-12T13:22:07.842Z,25.82
2022-09-12T13:24:44.950Z,25.15
2022-09-12T13:27:23.247Z,25.11
2022-09-12T13:30:15.734Z,24.86
2022-09-12T13:32:44.766Z,24.13
2022-09-12T13:35:43.662Z,23.35
2022-09-12T13:38:26.584Z,22.27
2022-09-12T13:41:24.857Z,21.51
2022-09-12T13:43:53.646Z,21.06
2022-09-12T13:46:30.521Z,20.87
2022-09-12T13:49:02.463Z,20.56
2022-09-12T13:51:32.830Z,20.63
2022-09-12T13:54:05.837Z,21.24
2022-09-12T13:56:34.785Z,21.77
2022-09-12T13:59:03.783Z,21.74
2022-09-12T14:01:44.301Z,20.85
2022-09-12T14:04:44.264Z,20.17
2022-09-12T14:07:26.062Z,19.83
2022-09-12T14:10:00.413Z,19.75
2022-09-12T14:12:40.486Z,19.82
2022-09-12T14:15:28.031Z,19.29
2022-09-12T14:18:03.417Z,19.53
2022-09-12T14:20:36.797Z,19.56
2022-09-12T14:23:19.308Z,19.48
2022-09-12T14:25:49.422Z,19.44
2022-09-12T14:28:22.795Z,19.55
2022-09-12T14:31:05.551Z,19.59
2022-09-12T14:33:47.227Z,19.66
2022-09-12T14:36:37.213Z,19.65
2022-09-12T14:39:17.974Z,19.42
2022-09-12T14:41:46.967Z,19.43
2022-09-12T14:44:21.490Z,19.55
2022-09-12T14:46:51.815Z,19.75
2022-09-12T14:49:23.270Z,19.88
2022-09-12T14:51:51.955Z,20.12
2022-09-12T14:54:30.540Z,20.51
2022-09-12T14:57:05.091Z,20.97
2022-09-12T14:59:33.721Z,21.42
2022-09-12T15:02:17.318Z,21.49
2022-09-12T15:04:51.527Z,21.42
2022-09-12T15:07:39.972Z,20.84
2022-09-12T15:10:40.809Z,20.44
2022-09-12T15:13:09.301Z,19.96
2022-09-12T15:15:39.835Z,19.63
2022-09-12T15:18:09.124Z,19.39
2022-09-12T15:20:39.959Z,19.22
2022-09-12T15:23:23.594Z,19.04
2022-09-12T15:25:52.815Z,18.78
2022-09-12T15:28:24.240Z,18.61
2022-09-12T15:30:56.542Z,18.48
2022-09-12T15:33:26.227Z,18.30
2022-09-12T15:35:54.911Z,18.20
2022-09-12T15:38:26.482Z,18.10
2022-09-12T15:40:57.804Z,18.00
2022-09-12T15:43:26.594Z,17.91
2022-09-12T15:45:55.308Z,17.83
2022-09-12T15:48:24.267Z,17.75
2022-09-12T15:50:53.138Z,17.62
2022-09-12T15:53:22.071Z,17.49
2022-09-12T15:55:50.845Z,17.40
2022-09-12T15:58:20.013Z,17.34
2022-09-12T16:00:49.038Z,17.22
2022-09-12T16:03:23.720Z,17.08
2022-09-12T16:06:01.764Z,16.91
2022-09-12T16:08:32.440Z,16.75
2022-09-12T16:11:08.350Z,16.64
2022-09-12T16:13:37.240Z,16.54
2022-09-12T16:16:06.342Z,16.41
2022-09-12T16:18:34.858Z,16.27
2022-09-12T16:21:03.400Z,16.18
2022-09-12T16:23:32.390Z,16.08
2022-09-12T16:26:03.751Z,16.00
2022-09-12T16:28:35.498Z,15.91
2022-09-12T16:31:07.172Z,15.86
2022-09-12T16:33:37.681Z,15.79
2022-09-12T16:36:11.711Z,15.74
2022-09-12T16:38:48.537Z,15.71
2022-09-12T16:41:19.709Z,15.64
2022-09-12T16:43:49.194Z,15.60
2022-09-12T16:46:19.319Z,15.56
2022-09-12T16:48:52.439Z,15.51
2022-09-12T16:51:24.591Z,15.46
2022-09-12T16:53:55.220Z,15.41
2022-09-12T16:56:24.880Z,15.39
2022-09-12T16:58:54.027Z,15.37
2022-09-12T17:01:24.877Z,15.33
2022-09-12T17:03:58.409Z,15.30
2022-09-12T17:06:28.062Z,15.26
2022-09-12T17:09:04.642Z,15.24
2022-09-12T17:11:38.361Z,15.22
2022-09-12T17:14:09.298Z,15.20
2022-09-12T17:16:47.978Z,15.19
2022-09-12T17:19:23.254Z,15.22
2022-09-12T17:21:52.341Z,15.23
2022-09-12T17:24:21.839Z,15.21
2022-09-12T17:26:52.645Z,15.16
2022-09-12T17:29:22.079Z,15.12
2022-09-12T17:31:50.866Z,15.07
2022-09-12T17:34:19.757Z,15.00
2022-09-12T17:36:48.670Z,14.92
2022-09-12T17:39:19.724Z,14.81
2022-09-12T17:41:56.843Z,14.72
2022-09-12T17:44:29.994Z,14.65
2022-09-12T17:46:58.646Z,14.58
2022-09-12T17:49:27.742Z,14.46
2022-09-12T17:51:56.633Z,14.42
2022-09-12T17:54:25.218Z,14.33
2022-09-12T17:56:55.980Z,14.22
2022-09-12T17:59:25.353Z,14.13
2022-09-12T18:02:12.461Z,14.05
2022-09-12T18:04:42.283Z,13.96
2022-09-12T18:07:10.867Z,13.88
2022-09-12T18:09:41.291Z,13.82
2022-09-12T18:12:11.108Z,13.76
2022-09-12T18:14:39.995Z,13.70
2022-09-12T18:17:11.479Z,13.66
2022-09-12T18:19:40.255Z,13.63
2022-09-12T18:22:09.657Z,13.59
2022-09-12T18:24:38.325Z,13.56
2022-09-12T18:27:07.414Z,13.54
2022-09-12T18:29:35.997Z,13.53
2022-09-12T18:32:04.490Z,13.55
2022-09-12T18:34:33.983Z,13.56
2022-09-12T18:37:05.462Z,13.56
2022-09-12T18:39:34.225Z,13.57
2022-09-12T18:42:02.917Z,13.58
2022-09-12T18:44:33.142Z,13.60
2022-09-12T18:47:05.490Z,13.60
2022-09-12T18:49:34.091Z,13.61
2022-09-12T18:52:02.972Z,13.61
2022-09-12T18:54:31.465Z,13.61
2022-09-12T18:57:00.346Z,13.57
2022-09-12T18:59:28.927Z,13.56
2022-09-12T19:01:58.371Z,13.56
2022-09-12T19:04:27.323Z,13.53
2022-09-12T19:06:58.163Z,13.49
2022-09-12T19:09:26.739Z,13.44
2022-09-12T19:11:55.632Z,13.41
2022-09-12T19:14:26.830Z,13.42
2022-09-12T19:16:55.463Z,13.42
2022-09-12T19:19:24.361Z,13.39
2022-09-12T19:21:53.040Z,13.34
2022-09-12T19:24:22.138Z,13.26
2022-09-12T19:26:51.842Z,13.21
2022-09-12T19:29:20.426Z,13.20
2022-09-12T19:31:49.830Z,13.22
2022-09-12T19:34:19.850Z,13.22
2022-09-12T19:36:49.147Z,13.27
2022-09-12T19:39:20.022Z,13.29
2022-09-12T19:41:49.590Z,13.31
2022-09-12T19:44:19.602Z,13.32
2022-09-12T19:46:48.436Z,13.32
2022-09-12T19:49:17.183Z,13.32
2022-09-12T19:51:45.765Z,13.33
2022-09-12T19:54:14.627Z,13.32
2022-09-12T19:56:43.248Z,13.31
2022-09-12T19:59:12.234Z,13.27
2022-09-12T20:01:40.906Z,13.19
2022-09-12T20:04:09.910Z,13.14
2022-09-12T20:06:39.008Z,13.09
2022-09-12T20:09:07.589Z,13.07
2022-09-12T20:11:36.372Z,13.07
2022-09-12T20:14:04.958Z,13.08
2022-09-12T20:16:34.080Z,13.10
2022-09-12T20:19:07.440Z,13.13
2022-09-12T20:21:37.158Z,13.16
2022-09-12T20:24:07.679Z,13.17
2022-09-12T20:26:36.987Z,13.18
2022-09-12T20:29:06.804Z,13.18
2022-09-12T20:31:37.909Z,13.18
2022-09-12T20:34:07.575Z,13.17
2022-09-12T20:36:36.236Z,13.16
2022-09-12T20:39:05.128Z,13.13
2022-09-12T20:41:36.258Z,13.11
2022-09-12T20:44:04.752Z,13.12
2022-09-12T20:46:34.492Z,13.13
2022-09-12T20:49:04.350Z,13.11
2022-09-12T20:51:32.955Z,13.12
2022-09-12T20:54:04.206Z,13.14
2022-09-12T20:56:35.036Z,13.14
2022-09-12T20:59:04.749Z,13.14
2022-09-12T21:01:33.936Z,13.14
2022-09-12T21:04:03.343Z,13.05
2022-09-12T21:06:32.236Z,13.01
2022-09-12T21:09:01.745Z,12.98
2022-09-12T21:11:30.575Z,12.96
2022-09-12T21:13:59.430Z,12.96
2022-09-12T21:16:28.580Z,12.93
2022-09-12T21:18:59.874Z,12.91
2022-09-12T21:21:28.865Z,12.90
2022-09-12T21:24:05.414Z,12.88
2022-09-12T21:26:34.420Z,12.89
2022-09-12T21:29:03.829Z,12.89
2022-09-12T21:31:32.771Z,12.90
2022-09-12T21:34:01.500Z,12.89
2022-09-12T21:36:30.395Z,12.88
2022-09-12T21:38:59.798Z,12.87
2022-09-12T21:41:29.202Z,12.86
2022-09-12T21:43:58.094Z,12.81
2022-09-12T21:46:27.438Z,12.69
2022-09-12T21:48:57.522Z,12.66
2022-09-12T21:51:26.702Z,12.58
2022-09-12T21:53:55.701Z,12.47
2022-09-12T21:56:24.791Z,12.39
2022-09-12T21:58:53.578Z,12.34
2022-09-12T22:01:22.392Z,12.30
2022-09-12T22:03:51.569Z,12.28
2022-09-12T22:06:22.536Z,12.26
2022-09-12T22:08:51.953Z,12.18
2022-09-12T22:11:21.519Z,12.09
2022-09-12T22:13:50.516Z,12.04
2022-09-12T22:16:19.853Z,12.00
2022-09-12T22:18:48.704Z,11.96
2022-09-12T22:21:20.411Z,11.95
2022-09-12T22:24:07.890Z,11.92
2022-09-12T22:26:42.426Z,11.90
2022-09-12T22:29:13.574Z,11.88
2022-09-12T22:31:43.407Z,11.87
2022-09-12T22:34:12.358Z,11.89
2022-09-12T22:36:42.294Z,11.88
2022-09-12T22:39:12.406Z,11.88
2022-09-12T22:41:42.525Z,11.87
2022-09-12T22:44:12.668Z,11.85
2022-09-12T22:46:41.384Z,11.83
2022-09-12T22:49:10.876Z,11.79
2022-09-12T22:51:40.960Z,11.75
2022-09-12T22:54:11.481Z,11.73
2022-09-12T22:56:40.981Z,11.68
2022-09-12T22:59:10.316Z,11.61
2022-09-12T23:01:40.182Z,11.57
2022-09-12T23:04:09.178Z,11.50
2022-09-12T23:06:37.991Z,11.46
2022-09-12T23:09:07.469Z,11.42
2022-09-12T23:11:37.312Z,11.37
2022-09-12T23:14:07.865Z,11.31
2022-09-12T23:16:36.823Z,11.24
2022-09-12T23:19:06.529Z,11.16
2022-09-12T23:21:35.707Z,11.08
2022-09-12T23:24:05.417Z,10.99
2022-09-12T23:26:35.747Z,10.90
2022-09-12T23:29:06.881Z,10.82
2022-09-12T23:31:37.435Z,10.74
2022-09-12T23:34:07.563Z,10.68
2022-09-12T23:36:37.875Z,10.61
2022-09-12T23:39:08.243Z,10.56
2022-09-12T23:41:38.992Z,10.53
2022-09-12T23:44:09.092Z,10.50
2022-09-12T23:46:39.672Z,10.48
2022-09-12T23:49:09.790Z,10.47
2022-09-12T23:51:39.096Z,10.46
2022-09-12T23:54:09.310Z,10.45
2022-09-12T23:56:40.118Z,10.43
2022-09-12T23:59:10.175Z,10.42
